Time;durP1;ratioP1;P1;durP2;ratioP2;P2;SDS_P1;SDS_P2;PMS_P1;PMS_P2;Temp;Humidity;BMP_temperature;BMP_pressure;BME280_temperature;BME280_humidity;BME280_pressure;Samples;Min_cycle;Max_cycle;Signal;HPM_P1;HPM_P2
2022/06/27 00:02:18;;;;;;;4.22;3.92;;;;;;;22.04;67.67;100150.25;1672457;85;21153;-67
2022/06/27 00:04:45;;;;;;;4.12;3.83;;;;;;;22.02;67.82;100147.56;1664167;85;21043;-70
2022/06/27 00:07:12;;;;;;;7.22;3.80;;;;;;;22.00;67.98;100148.45;1652611;86;20970;-70
2022/06/27 00:09:40;;;;;;;4.08;3.67;;;;;;;21.96;68.32;100152.95;1640749;87;21521;-70
2022/06/27 00:12:09;;;;;;;6.60;4.65;;;;;;;21.91;68.78;100149.75;1675257;85;21008;-71
2022/06/27 00:14:38;;;;;;;4.20;3.90;;;;;;;21.82;69.33;100153.01;1661993;85;20988;-70
2022/06/27 00:17:05;;;;;;;5.17;4.67;;;;;;;21.77;69.71;100156.43;1664187;85;20948;-69
2022/06/27 00:19:31;;;;;;;4.53;4.08;;;;;;;21.70;70.02;100152.75;1652972;86;21081;-69
2022/06/27 00:21:59;;;;;;;5.37;4.80;;;;;;;21.66;70.08;100148.47;1653037;85;21007;-70
2022/06/27 00:24:26;;;;;;;5.78;4.65;;;;;;;21.71;70.03;100149.71;1669537;84;21096;-70
2022/06/27 00:26:53;;;;;;;4.45;4.05;;;;;;;21.67;70.12;100154.20;1651861;86;21148;-70
2022/06/27 00:29:20;;;;;;;6.35;4.62;;;;;;;21.66;70.07;100154.50;1655595;84;21173;-69
2022/06/27 00:31:47;;;;;;;4.97;4.58;;;;;;;21.68;70.23;100154.98;1667303;86;21065;-68
2022/06/27 00:34:14;;;;;;;6.47;4.72;;;;;;;21.67;70.25;100152.83;1675819;84;20998;-68
2022/06/27 00:36:41;;;;;;;4.60;4.25;;;;;;;21.67;70.17;100151.46;1681077;84;21040;-68
2022/06/27 00:39:08;;;;;;;6.35;4.67;;;;;;;21.69;70.11;100150.57;1665363;85;22210;-69
2022/06/27 00:41:35;;;;;;;5.67;4.78;;;;;;;21.64;70.53;100150.70;1678637;84;20933;-69
2022/06/27 00:44:02;;;;;;;5.58;4.65;;;;;;;21.58;70.76;100153.89;1666370;85;21048;-70
2022/06/27 00:46:29;;;;;;;7.15;4.35;;;;;;;21.49;71.08;100156.54;1652486;86;21104;-69
2022/06/27 00:48:56;;;;;;;5.35;4.85;;;;;;;21.45;71.21;100158.84;1675216;85;21002;-69
2022/06/27 00:51:26;;;;;;;4.67;4.25;;;;;;;21.46;71.02;100159.09;1660968;85;21084;-70
2022/06/27 00:53:54;;;;;;;5.22;4.72;;;;;;;21.48;71.02;100158.23;1669150;84;21084;-68
2022/06/27 00:56:21;;;;;;;4.53;4.03;;;;;;;21.45;71.29;100151.44;1671434;85;20980;-70
2022/06/27 00:58:48;;;;;;;5.50;4.70;;;;;;;21.46;71.14;100150.89;1678192;85;21541;-71
2022/06/27 01:01:14;;;;;;;5.17;4.60;;;;;;;21.46;71.33;100157.17;1675927;85;21047;-76
2022/06/27 01:03:41;;;;;;;4.10;3.80;;;;;;;21.46;71.15;100155.80;1655595;84;21093;-75
2022/06/27 01:06:08;;;;;;;5.00;4.42;;;;;;;21.49;71.02;100157.91;1695143;84;20974;-76
2022/06/27 01:08:34;;;;;;;4.62;3.77;;;;;;;21.52;70.91;100161.41;1704455;83;21084;-76
2022/06/27 01:11:01;;;;;;;4.50;3.87;;;;;;;21.53;70.94;100163.59;1704713;83;21049;-75
2022/06/27 01:13:30;;;;;;;5.65;3.95;;;;;;;21.53;70.88;100166.33;1700762;84;20996;-75
2022/06/27 01:15:57;;;;;;;4.65;4.25;;;;;;;21.53;70.85;100159.48;1675194;85;22510;-75
2022/06/27 01:18:23;;;;;;;4.85;4.45;;;;;;;21.51;70.99;100168.55;1676159;84;21105;-75
2022/06/27 01:20:50;;;;;;;8.75;4.83;;;;;;;21.52;70.96;100171.55;1698299;83;20993;-75
2022/06/27 01:23:16;;;;;;;5.22;4.80;;;;;;;21.51;70.90;100165.82;1688955;84;22220;-75
2022/06/27 01:25:43;;;;;;;6.75;4.10;;;;;;;21.53;70.89;100169.88;1680273;85;21012;-76
2022/06/27 01:28:11;;;;;;;6.15;4.75;;;;;;;21.53;70.94;100163.59;1666537;84;21179;-77
2022/06/27 01:30:38;;;;;;;5.30;4.80;;;;;;;21.49;71.02;100169.41;1661883;84;21066;-77
2022/06/27 01:33:05;;;;;;;5.33;4.90;;;;;;;21.48;71.02;100170.00;1666466;86;21570;-76
2022/06/27 01:35:33;;;;;;;7.17;4.70;;;;;;;21.48;71.16;100170.56;1635758;86;21102;-77
2022/06/27 01:38:00;;;;;;;5.75;4.80;;;;;;;21.45;71.21;100174.70;1703409;84;21500;-76
2022/06/27 01:40:27;;;;;;;6.17;4.28;;;;;;;21.44;71.26;100171.72;1661573;86;21101;-78
2022/06/27 01:42:54;;;;;;;4.33;3.98;;;;;;;21.48;71.33;100177.41;1645134;86;21486;-74
2022/06/27 01:45:21;;;;;;;4.65;4.25;;;;;;;21.47;71.35;100176.59;1660695;84;20993;-76
2022/06/27 01:47:47;;;;;;;5.12;4.45;;;;;;;21.46;71.41;100172.23;1675392;84;21515;-75
2022/06/27 01:50:14;;;;;;;10.32;4.70;;;;;;;21.44;71.35;100168.20;1673513;85;21021;-76
2022/06/27 01:52:42;;;;;;;6.60;4.20;;;;;;;21.41;71.42;100164.13;1669803;85;21135;-75
2022/06/27 01:55:10;;;;;;;4.60;4.20;;;;;;;21.38;71.57;100163.39;1676654;85;20918;-76
2022/06/27 01:57:37;;;;;;;4.85;4.47;;;;;;;21.37;71.57;100161.77;1676780;85;21023;-74
2022/06/27 02:00:06;;;;;;;5.25;4.75;;;;;;;21.32;71.61;100166.00;1676560;85;21021;-73
2022/06/27 02:02:43;;;;;;;4.80;4.40;;;;;;;21.31;71.55;100170.66;1657115;85;21094;-76
2022/06/27 02:05:11;;;;;;;7.47;4.22;;;;;;;21.38;71.54;100168.88;1706776;83;21150;-76
2022/06/27 02:07:39;;;;;;;5.05;3.67;;;;;;;21.40;71.25;100170.72;1705712;84;20948;-74
2022/06/27 02:10:09;;;;;;;5.37;4.08;;;;;;;21.38;71.05;100166.13;1708875;83;21505;-75
2022/06/27 02:12:37;;;;;;;6.10;4.40;;;;;;;21.34;71.08;100168.43;1664709;85;21094;-75
2022/06/27 02:15:07;;;;;;;4.67;4.28;;;;;;;21.27;71.21;100172.95;1667582;85;21029;-76
2022/06/27 02:17:37;;;;;;;7.92;5.08;;;;;;;21.29;71.16;100168.77;1677094;85;21149;-75
2022/06/27 02:20:07;;;;;;;8.08;4.80;;;;;;;21.30;71.06;100167.66;1675891;85;21567;-75
2022/06/27 02:22:35;;;;;;;4.83;4.42;;;;;;;21.33;70.86;100174.46;1651681;85;21537;-76
2022/06/27 02:25:04;;;;;;;4.50;4.05;;;;;;;21.36;70.74;100177.94;1676662;85;21084;-76
2022/06/27 02:27:30;;;;;;;4.97;4.15;;;;;;;21.38;70.52;100171.61;1676943;85;20949;-75
2022/06/27 02:29:59;;;;;;;4.42;4.12;;;;;;;21.39;70.37;100175.16;1677478;85;21545;-76
2022/06/27 02:32:27;;;;;;;9.83;4.65;;;;;;;21.42;70.21;100173.97;1675469;85;21060;-77
2022/06/27 02:34:57;;;;;;;9.80;4.58;;;;;;;21.46;70.00;100176.33;1675964;85;21013;-77
2022/06/27 02:37:25;;;;;;;9.80;3.85;;;;;;;21.50;69.81;100177.33;1676410;85;21138;-76
2022/06/27 02:39:53;;;;;;;8.83;4.10;;;;;;;21.57;69.55;100183.19;1694943;84;21010;-75
2022/06/27 02:42:21;;;;;;;6.83;5.30;;;;;;;21.65;69.12;100182.99;1665375;85;21086;-77
2022/06/27 02:44:48;;;;;;;3.70;3.40;;;;;;;21.72;68.86;100187.48;1678283;85;21016;-76
2022/06/27 02:47:20;;;;;;;3.65;3.45;;;;;;;21.75;68.37;100187.66;1676866;85;21044;-77
2022/06/27 02:49:47;;;;;;;6.67;4.17;;;;;;;21.78;68.27;100199.09;1689987;84;21089;-75
2022/06/27 02:52:31;;;;;;;5.28;4.25;;;;;;;21.80;68.20;100196.31;1682633;84;21052;-78
2022/06/27 02:55:10;;;;;;;4.40;4.05;;;;;;;21.82;68.19;100195.45;1676278;85;21168;-76
2022/06/27 02:57:55;;;;;;;5.33;4.40;;;;;;;21.84;68.26;100195.94;1658336;85;21088;-74
2022/06/27 03:00:23;;;;;;;9.95;4.00;;;;;;;21.85;68.31;100197.56;1679800;85;21024;-75
2022/06/27 03:02:51;;;;;;;11.78;4.28;;;;;;;21.84;68.46;100197.30;1680095;85;21016;-75
2022/06/27 03:05:29;;;;;;;5.65;4.20;;;;;;;21.84;68.57;100197.86;1658678;84;21088;-75
2022/06/27 03:07:56;;;;;;;4.78;4.37;;;;;;;21.85;68.66;100203.59;1704989;83;21053;-76
2022/06/27 03:10:24;;;;;;;7.50;5.05;;;;;;;21.80;68.83;100194.95;1704960;84;20949;-75
2022/06/27 03:12:50;;;;;;;4.33;4.00;;;;;;;21.80;68.92;100199.05;1673674;85;21059;-76
2022/06/27 03:15:17;;;;;;;4.90;4.50;;;;;;;21.84;68.97;100196.48;1640413;87;21616;-77
2022/06/27 03:17:45;;;;;;;4.33;4.00;;;;;;;21.90;68.96;100188.41;1637839;86;21559;-76
2022/06/27 03:20:27;;;;;;;4.33;3.95;;;;;;;21.94;68.83;100190.79;1640686;86;21165;-77
2022/06/27 03:23:03;;;;;;;4.60;4.20;;;;;;;22.01;68.64;100192.54;1652699;86;21027;-74
2022/06/27 03:25:31;;;;;;;6.37;4.08;;;;;;;22.08;68.47;100195.63;1667239;85;21338;-76
2022/06/27 03:27:58;;;;;;;4.90;4.45;;;;;;;22.08;68.40;100195.07;1695210;84;21077;-78
2022/06/27 03:30:25;;;;;;;4.67;4.28;;;;;;;22.10;68.43;100203.80;1686488;84;21068;-77
2022/06/27 03:32:52;;;;;;;3.83;3.52;;;;;;;22.11;68.57;100199.91;1642125;85;21167;-76
2022/06/27 03:35:21;;;;;;;4.65;4.25;;;;;;;22.09;68.59;100195.88;1669634;85;21027;-76
2022/06/27 03:37:48;;;;;;;9.53;5.80;;;;;;;22.08;68.72;100197.00;1697651;84;20984;-76
2022/06/27 03:40:14;;;;;;;5.12;4.62;;;;;;;22.05;68.82;100203.93;1635144;86;20995;-77
2022/06/27 03:42:43;;;;;;;5.03;4.50;;;;;;;22.06;68.96;100206.89;1674958;85;21036;-75
2022/06/27 03:45:10;;;;;;;7.60;5.90;;;;;;;22.07;69.09;100199.48;1666070;85;21154;-77
2022/06/27 03:47:54;;;;;;;7.10;5.22;;;;;;;22.07;69.12;100207.70;1666340;86;20961;-78
2022/06/27 03:50:33;;;;;;;4.75;4.33;;;;;;;22.09;69.27;100209.02;1676703;85;21047;-78
2022/06/27 03:52:59;;;;;;;4.20;3.90;;;;;;;22.13;69.43;100207.27;1674872;85;21009;-80
2022/06/27 03:55:27;;;;;;;4.83;4.28;;;;;;;22.12;69.52;100207.02;1674640;85;21006;-79
2022/06/27 03:57:56;;;;;;;5.30;4.78;;;;;;;22.16;69.44;100208.00;1678984;85;22114;-78
2022/06/27 04:00:26;;;;;;;7.12;4.37;;;;;;;22.19;69.47;100212.06;1669891;85;21023;-78
2022/06/27 04:02:53;;;;;;;4.58;4.25;;;;;;;22.26;69.38;100204.73;1658990;86;21013;-76
2022/06/27 04:05:22;;;;;;;4.55;4.17;;;;;;;22.31;69.05;100210.90;1673763;85;21028;-77
2022/06/27 04:07:49;;;;;;;5.35;4.45;;;;;;;22.35;68.92;100206.98;1673855;85;21504;-77
2022/06/27 04:10:17;;;;;;;7.10;5.42;;;;;;;22.38;68.75;100206.34;1672502;85;21150;-80
2022/06/27 04:12:44;;;;;;;5.22;4.28;;;;;;;22.40;68.74;100207.63;1673594;85;21091;-78
2022/06/27 04:15:29;;;;;;;6.85;5.00;;;;;;;22.42;68.79;100205.40;1673459;85;20977;-75
2022/06/27 04:17:57;;;;;;;4.83;4.47;;;;;;;22.44;68.71;100207.84;1671546;85;21520;-75
2022/06/27 04:20:28;;;;;;;6.30;4.53;;;;;;;22.44;68.62;100208.64;1654262;85;21000;-76
2022/06/27 04:22:57;;;;;;;10.50;9.40;;;;;;;22.46;68.59;100209.13;1646427;86;21169;-76
2022/06/27 04:25:35;;;;;;;8.35;5.72;;;;;;;22.49;68.54;100215.92;1619613;87;21104;-74
2022/06/27 04:28:05;;;;;;;6.08;4.87;;;;;;;22.48;68.53;100211.00;1672365;85;20996;-75
2022/06/27 04:30:33;;;;;;;7.58;4.00;;;;;;;22.50;68.38;100216.14;1659907;85;21095;-75
2022/06/27 04:33:00;;;;;;;6.92;4.67;;;;;;;22.49;68.49;100205.73;1659123;86;21523;-76
2022/06/27 04:35:27;;;;;;;10.13;6.03;;;;;;;22.52;68.44;100215.28;1658865;86;21099;-76
2022/06/27 04:37:55;;;;;;;4.67;4.20;;;;;;;22.55;68.35;100216.01;1649046;85;21029;-75
2022/06/27 04:40:34;;;;;;;5.15;4.75;;;;;;;22.55;68.20;100214.08;1660092;85;20927;-74
2022/06/27 04:43:02;;;;;;;4.72;4.33;;;;;;;22.51;68.12;100208.17;1634025;87;21061;-76
2022/06/27 04:45:29;;;;;;;5.53;4.83;;;;;;;22.48;68.25;100213.74;1634089;86;21069;-76
2022/06/27 04:47:58;;;;;;;10.43;5.28;;;;;;;22.45;68.50;100216.28;1645209;86;21339;-75
2022/06/27 04:50:25;;;;;;;5.05;4.58;;;;;;;22.43;68.71;100220.73;1656879;86;21046;-75
2022/06/27 04:52:54;;;;;;;9.18;5.35;;;;;;;22.42;69.00;100219.66;1634047;87;21109;-74
2022/06/27 04:55:22;;;;;;;5.67;4.65;;;;;;;22.40;69.37;100220.53;1657730;85;21075;-73
2022/06/27 04:57:49;;;;;;;10.70;5.10;;;;;;;22.42;69.33;100215.55;1647844;85;21041;-73
2022/06/27 05:00:17;;;;;;;5.00;4.35;;;;;;;22.42;69.33;100210.07;1644938;87;21314;-75
2022/06/27 05:02:49;;;;;;;6.62;5.30;;;;;;;22.43;69.24;100211.14;1644627;87;21025;-78
2022/06/27 05:05:15;;;;;;;5.35;4.85;;;;;;;22.46;69.20;100217.34;1632066;88;21005;-76
2022/06/27 05:07:43;;;;;;;5.70;5.25;;;;;;;22.51;69.24;100215.84;1667995;84;21600;-77
2022/06/27 05:10:11;;;;;;;5.47;4.78;;;;;;;22.59;69.15;100214.24;1673923;85;21024;-78
2022/06/27 05:12:39;;;;;;;6.37;4.85;;;;;;;22.62;69.11;100215.00;1648657;85;21083;-77
2022/06/27 05:15:08;;;;;;;8.45;5.83;;;;;;;22.62;69.21;100220.48;1646371;86;20989;-78
2022/06/27 05:17:36;;;;;;;5.85;5.35;;;;;;;22.64;69.23;100220.18;1665247;85;21501;-79
2022/06/27 05:20:04;;;;;;;4.33;3.92;;;;;;;22.64;69.24;100219.59;1674117;85;21536;-78
2022/06/27 05:22:32;;;;;;;6.75;4.75;;;;;;;22.69;69.12;100221.38;1672695;85;21044;-76
2022/06/27 05:24:59;;;;;;;5.42;4.92;;;;;;;22.70;69.07;100226.59;1633750;86;21117;-75
2022/06/27 05:27:26;;;;;;;8.30;4.62;;;;;;;22.69;69.20;100225.48;1663340;85;21010;-78
2022/06/27 05:29:53;;;;;;;6.30;5.42;;;;;;;22.73;69.21;100220.48;1686944;84;21610;-76
2022/06/27 05:32:20;;;;;;;8.80;5.20;;;;;;;22.76;69.15;100223.95;1644597;84;21014;-76
2022/06/27 05:34:49;;;;;;;5.65;5.15;;;;;;;22.81;69.41;100217.52;1656973;86;21549;-76
2022/06/27 05:37:17;;;;;;;7.33;6.62;;;;;;;22.88;69.11;100210.98;1657782;86;21159;-76
2022/06/27 05:39:46;;;;;;;10.15;7.10;;;;;;;22.97;68.88;100219.48;1657248;86;21113;-77
2022/06/27 05:42:12;;;;;;;5.92;5.20;;;;;;;23.07;68.64;100209.36;1649841;85;21169;-78
2022/06/27 05:44:39;;;;;;;7.47;6.12;;;;;;;23.16;68.52;100220.59;1658925;85;21378;-78
2022/06/27 05:47:07;;;;;;;11.57;6.40;;;;;;;23.24;68.44;100216.23;1657991;86;21048;-78
2022/06/27 05:49:44;;;;;;;6.95;5.17;;;;;;;23.33;68.39;100221.16;1643811;86;21175;-77
2022/06/27 05:52:11;;;;;;;8.68;5.58;;;;;;;23.41;67.91;100221.73;1650526;85;21507;-77
2022/06/27 05:54:38;;;;;;;5.45;4.47;;;;;;;23.49;67.58;100216.05;1680109;84;20998;-76
2022/06/27 05:57:07;;;;;;;4.62;4.22;;;;;;;23.58;66.97;100221.78;1659547;85;22153;-76
2022/06/27 05:59:34;;;;;;;12.98;5.72;;;;;;;23.66;66.73;100220.96;1660146;85;21548;-75
2022/06/27 06:02:03;;;;;;;6.17;5.10;;;;;;;23.76;66.67;100227.50;1672921;85;21195;-75
2022/06/27 06:04:31;;;;;;;5.85;4.78;;;;;;;23.85;66.46;100227.48;1673583;85;20940;-75
2022/06/27 06:06:59;;;;;;;6.30;4.95;;;;;;;23.93;66.11;100228.06;1673307;85;21517;-75
2022/06/27 06:09:27;;;;;;;5.30;4.90;;;;;;;24.01;65.83;100232.73;1673299;85;21088;-75
2022/06/27 06:11:55;;;;;;;5.25;4.67;;;;;;;24.07;65.63;100228.69;1654528;85;21067;-75
2022/06/27 06:14:22;;;;;;;5.50;4.58;;;;;;;24.15;65.52;100220.17;1646576;87;21113;-74
2022/06/27 06:16:51;;;;;;;8.20;5.40;;;;;;;24.24;65.33;100227.86;1653065;85;21035;-77
2022/06/27 06:19:18;;;;;;;4.90;4.55;;;;;;;24.31;65.01;100225.42;1672301;85;21027;-77
2022/06/27 06:21:45;;;;;;;7.50;4.95;;;;;;;24.39;64.92;100226.52;1662339;85;21046;-80
2022/06/27 06:24:12;;;;;;;5.83;5.33;;;;;;;24.47;64.74;100225.67;1668040;85;21543;-79
2022/06/27 06:26:39;;;;;;;9.65;4.70;;;;;;;24.52;64.82;100227.67;1658871;85;21563;-80
2022/06/27 06:29:12;;;;;;;5.47;4.65;;;;;;;24.58;64.51;100222.80;1672552;85;21027;-77
2022/06/27 06:31:34;;;;;;;12.20;5.45;;;;;;;24.64;64.24;100214.62;1620334;87;21014;-76
2022/06/27 06:34:05;;;;;;;5.65;4.80;;;;;;;24.71;63.73;100214.89;1632024;86;21585;-75
2022/06/27 06:36:32;;;;;;;5.25;4.75;;;;;;;24.78;63.83;100209.69;1634057;87;21088;-74
2022/06/27 06:39:01;;;;;;;9.93;8.63;;;;;;;24.85;63.74;100204.45;1649085;85;21230;-77
2022/06/27 06:41:27;;;;;;;17.02;13.68;;;;;;;24.92;63.69;100208.91;1659123;85;21033;-76
2022/06/27 06:43:54;;;;;;;13.38;8.25;;;;;;;25.02;63.37;100213.23;1658763;85;21001;-76
2022/06/27 06:46:27;;;;;;;14.63;12.82;;;;;;;25.11;63.02;100215.35;1655844;86;21034;-77
2022/06/27 06:48:58;;;;;;;13.08;7.65;;;;;;;25.21;62.63;100214.16;1653405;85;21054;-78
2022/06/27 06:51:24;;;;;;;7.20;6.25;;;;;;;25.30;62.37;100219.84;1657500;86;21794;-76
2022/06/27 06:53:51;;;;;;;6.70;5.83;;;;;;;25.38;62.16;100206.56;1661333;85;21001;-76
2022/06/27 06:56:18;;;;;;;7.15;5.92;;;;;;;25.46;62.24;100211.22;1702165;83;22422;-76
2022/06/27 06:58:45;;;;;;;6.00;5.30;;;;;;;25.52;62.25;100210.42;1685558;83;21049;-77
2022/06/27 07:01:12;;;;;;;7.53;5.22;;;;;;;25.57;61.77;100216.56;1647435;85;21124;-77
2022/06/27 07:03:39;;;;;;;6.55;5.37;;;;;;;25.63;61.91;100213.61;1645105;87;21234;-76
2022/06/27 07:06:06;;;;;;;9.00;5.28;;;;;;;25.68;62.22;100215.59;1645305;86;20989;-77
2022/06/27 07:08:36;;;;;;;5.78;5.28;;;;;;;25.76;62.28;100218.83;1651756;86;21044;-79
2022/06/27 07:11:02;;;;;;;5.42;4.90;;;;;;;25.84;61.62;100218.53;1676746;85;21502;-77
2022/06/27 07:13:29;;;;;;;5.85;5.35;;;;;;;25.90;61.49;100216.59;1679898;84;21083;-79
2022/06/27 07:15:56;;;;;;;6.17;5.28;;;;;;;25.98;61.39;100218.47;1680374;85;21063;-78
2022/06/27 07:18:24;;;;;;;5.92;5.37;;;;;;;26.08;61.33;100223.33;1679885;85;21603;-78
2022/06/27 07:20:52;;;;;;;7.45;4.50;;;;;;;26.16;60.82;100227.36;1679481;84;21564;-78
2022/06/27 07:23:20;;;;;;;5.60;5.15;;;;;;;26.26;60.63;100226.96;1667551;85;21947;-79
2022/06/27 07:25:47;;;;;;;9.50;6.92;;;;;;;26.35;59.59;100224.09;1680739;85;21023;-78
2022/06/27 07:28:16;;;;;;;9.33;6.60;;;;;;;26.45;59.51;100225.03;1679904;85;21137;-76
2022/06/27 07:30:43;;;;;;;7.75;6.95;;;;;;;26.51;59.36;100234.71;1679659;85;20971;-76
2022/06/27 07:33:11;;;;;;;10.85;5.60;;;;;;;26.58;59.26;100232.75;1667348;85;21004;-76
2022/06/27 07:35:37;;;;;;;6.95;5.67;;;;;;;26.63;59.06;100231.95;1680065;84;21027;-74
2022/06/27 07:38:05;;;;;;;9.50;4.75;;;;;;;26.72;57.38;100227.70;1679355;85;21032;-76
2022/06/27 07:40:34;;;;;;;12.70;5.47;;;;;;;26.80;57.39;100225.41;1680030;85;21143;-75
2022/06/27 07:43:01;;;;;;;5.85;5.30;;;;;;;26.88;56.73;100230.84;1678585;84;20996;-76
2022/06/27 07:45:27;;;;;;;9.15;5.28;;;;;;;26.98;56.97;100226.81;1679749;85;21047;-76
2022/06/27 07:47:55;;;;;;;6.08;5.50;;;;;;;27.06;57.23;100220.92;1678602;85;20980;-76
2022/06/27 07:50:36;;;;;;;5.20;4.80;;;;;;;27.14;57.10;100226.92;1675127;85;21085;-76
2022/06/27 07:53:19;;;;;;;5.95;5.45;;;;;;;27.21;55.59;100227.13;1649415;84;21552;-72
2022/06/27 07:55:56;;;;;;;7.47;5.70;;;;;;;27.26;55.27;100230.45;1680473;85;21083;-74
2022/06/27 07:58:33;;;;;;;7.17;4.75;;;;;;;27.32;55.17;100236.55;1680384;85;21183;-74
2022/06/27 08:01:03;;;;;;;4.95;4.55;;;;;;;27.42;54.17;100237.45;1680057;85;21063;-74
2022/06/27 08:03:36;;;;;;;7.08;4.22;;;;;;;27.52;53.71;100234.81;1657272;85;21010;-74
2022/06/27 08:06:25;;;;;;;10.80;4.37;;;;;;;27.59;53.21;100237.19;1657533;85;20990;-74
2022/06/27 08:09:01;;;;;;;4.37;3.98;;;;;;;27.68;53.38;100235.66;1670687;85;21524;-75
2022/06/27 08:11:34;;;;;;;4.62;3.65;;;;;;;27.75;52.10;100225.62;1663800;85;21090;-74
2022/06/27 08:14:03;;;;;;;;;;;;;;;27.80;51.57;100228.72;1653732;86;21109;-75
2022/06/27 08:16:32;;;;;;;4.58;3.37;;;;;;;27.87;51.67;100233.63;1658909;85;20437;-76
2022/06/27 08:18:59;;;;;;;17.77;9.80;;;;;;;27.91;51.65;100234.55;1658718;85;21978;-76
2022/06/27 08:21:27;;;;;;;5.90;5.33;;;;;;;27.96;51.69;100227.39;1632467;87;21051;-77
2022/06/27 08:23:58;;;;;;;7.85;4.95;;;;;;;28.02;51.88;100225.38;1644781;87;21035;-75
2022/06/27 08:26:25;;;;;;;16.45;5.55;;;;;;;28.10;52.18;100224.44;1644992;87;21000;-75
2022/06/27 08:28:53;;;;;;;5.35;3.80;;;;;;;28.18;51.18;100233.17;1645221;85;21104;-76
2022/06/27 08:31:20;;;;;;;3.85;3.55;;;;;;;28.29;50.73;100229.89;1645935;87;21156;-78
2022/06/27 08:33:49;;;;;;;4.40;3.75;;;;;;;28.39;50.30;100228.79;1645665;86;20975;-80
2022/06/27 08:36:17;;;;;;;4.45;4.05;;;;;;;28.45;50.45;100227.34;1662479;85;21553;-76
2022/06/27 08:38:48;;;;;;;9.33;3.83;;;;;;;28.50;50.16;100213.81;1674199;85;21107;-76
2022/06/27 08:41:12;;;;;;;4.20;3.70;;;;;;;28.54;49.86;100221.05;1654153;85;21091;-76
2022/06/27 08:43:40;;;;;;;4.10;3.80;;;;;;;28.59;49.52;100223.55;1673768;84;21025;-78
2022/06/27 08:46:08;;;;;;;8.45;3.55;;;;;;;28.64;49.50;100221.09;1674130;85;21000;-75
2022/06/27 08:48:41;;;;;;;7.65;3.83;;;;;;;28.72;48.79;100226.27;1673818;85;21005;-77
2022/06/27 08:51:06;;;;;;;4.05;3.65;;;;;;;28.76;47.96;100227.16;1662636;85;21049;-76
2022/06/27 08:53:34;;;;;;;7.10;4.47;;;;;;;28.80;48.09;100231.62;1656839;85;21560;-76
2022/06/27 08:56:01;;;;;;;6.97;4.35;;;;;;;28.83;48.02;100220.39;1673319;85;21544;-76
2022/06/27 08:58:29;;;;;;;4.58;4.15;;;;;;;28.83;47.12;100224.54;1672638;84;20968;-76
2022/06/27 09:00:56;;;;;;;10.30;3.52;;;;;;;28.81;46.93;100225.50;1672705;84;21504;-76
2022/06/27 09:03:24;;;;;;;9.75;4.25;;;;;;;28.82;46.98;100232.07;1678309;85;21511;-73
2022/06/27 09:05:59;;;;;;;5.35;4.15;;;;;;;28.82;47.12;100224.34;1663996;86;20994;-75
2022/06/27 09:08:28;;;;;;;9.15;3.80;;;;;;;28.85;46.78;100227.77;1656967;85;21088;-77
2022/06/27 09:10:57;;;;;;;5.72;3.80;;;;;;;28.89;46.96;100219.77;1654588;86;21234;-79
2022/06/27 09:13:25;;;;;;;4.40;4.00;;;;;;;28.94;46.54;100222.26;1667937;85;20977;-78
2022/06/27 09:16:01;;;;;;;5.92;4.95;;;;;;;28.96;46.20;100226.06;1675204;85;20985;-78
2022/06/27 09:18:36;;;;;;;11.40;5.10;;;;;;;28.96;46.40;100232.41;1677732;85;21102;-79
2022/06/27 09:21:07;;;;;;;9.53;3.87;;;;;;;29.03;46.59;100233.95;1680617;85;21676;-78
2022/06/27 09:23:53;;;;;;;11.10;4.58;;;;;;;29.06;46.86;100230.25;1679691;85;20991;-77
2022/06/27 09:26:25;;;;;;;6.97;3.83;;;;;;;29.09;46.00;100224.78;1666931;85;20977;-75
2022/06/27 09:29:08;;;;;;;9.05;5.58;;;;;;;29.15;46.21;100216.42;1635726;86;21080;-75
2022/06/27 09:31:39;;;;;;;5.12;4.28;;;;;;;29.20;45.61;100224.45;1653674;86;21104;-76
2022/06/27 09:34:16;;;;;;;6.87;6.28;;;;;;;29.29;45.24;100226.44;1674203;85;21129;-74
2022/06/27 09:36:52;;;;;;;5.45;4.92;;;;;;;29.37;44.79;100215.75;1664900;85;20992;-74
2022/06/27 09:39:31;;;;;;;5.60;4.05;;;;;;;29.47;44.68;100215.75;1667118;85;21052;-74
2022/06/27 09:42:07;;;;;;;4.20;3.85;;;;;;;29.57;43.60;100206.05;1652198;86;21072;-75
2022/06/27 09:44:38;;;;;;;4.78;4.00;;;;;;;29.58;43.45;100212.63;1625909;86;21766;-74
2022/06/27 09:47:20;;;;;;;4.67;3.40;;;;;;;29.67;43.62;100219.34;1660171;85;21147;-72
2022/06/27 09:49:51;;;;;;;9.75;5.03;;;;;;;29.77;44.55;100202.11;1679709;84;21569;-73
2022/06/27 09:52:20;;;;;;;7.17;4.53;;;;;;;29.81;44.87;100197.44;1705230;84;21533;-73
2022/06/27 09:54:48;;;;;;;5.17;4.62;;;;;;;29.80;43.87;100199.98;1680596;84;21052;-72
2022/06/27 09:57:16;;;;;;;5.65;5.15;;;;;;;29.80;43.25;100198.59;1675156;85;21112;-73
2022/06/27 09:59:45;;;;;;;6.92;4.12;;;;;;;29.75;43.49;100203.05;1666328;85;21160;-75
2022/06/27 10:02:16;;;;;;;15.98;4.95;;;;;;;29.80;43.74;100193.86;1660249;85;21123;-73
2022/06/27 10:04:46;;;;;;;7.58;3.85;;;;;;;29.90;43.54;100185.55;1682033;84;21101;-73
2022/06/27 10:07:14;;;;;;;3.83;3.50;;;;;;;30.03;43.02;100193.11;1688389;84;21055;-74
2022/06/27 10:09:42;;;;;;;8.85;4.03;;;;;;;30.07;42.06;100185.07;1692750;83;21115;-74
2022/06/27 10:12:27;;;;;;;5.60;4.42;;;;;;;30.10;42.15;100195.45;1651560;86;21158;-72
2022/06/27 10:15:19;;;;;;;6.58;3.65;;;;;;;30.15;41.40;100185.44;1678098;85;21156;-72
2022/06/27 10:17:49;;;;;;;5.17;3.55;;;;;;;30.15;41.64;100192.38;1666479;86;21109;-73
2022/06/27 10:20:36;;;;;;;2.90;2.70;;;;;;;30.22;41.47;100192.48;1689207;84;21013;-70
2022/06/27 10:23:13;;;;;;;4.00;3.60;;;;;;;30.29;40.82;100190.43;1692374;84;36877;-70
2022/06/27 10:25:44;;;;;;;8.10;4.17;;;;;;;30.39;41.21;100196.76;1668122;85;21269;-71
2022/06/27 10:28:17;;;;;;;6.62;3.65;;;;;;;30.47;40.40;100181.04;1652572;86;21034;-70
2022/06/27 10:30:54;;;;;;;6.20;4.33;;;;;;;30.54;39.01;100183.36;1670837;85;21103;-72
2022/06/27 10:33:29;;;;;;;4.67;3.83;;;;;;;30.62;39.01;100192.02;1703250;83;24838;-69
2022/06/27 10:36:24;;;;;;;6.72;3.25;;;;;;;30.72;38.14;100192.77;1709604;82;21558;-71
2022/06/27 10:38:42;;;;;;;4.75;3.20;;;;;;;30.79;35.64;100189.31;1674766;84;22085;-74
2022/06/27 10:41:23;;;;;;;8.15;3.62;;;;;;;30.78;35.25;100182.15;1687985;84;21527;-71
2022/06/27 10:43:53;;;;;;;4.65;3.02;;;;;;;30.73;34.89;100174.94;1701569;83;21066;-71
2022/06/27 10:46:28;;;;;;;3.22;2.92;;;;;;;30.70;34.60;100182.61;1688827;84;21041;-75
2022/06/27 10:48:56;;;;;;;;;;;;;;;30.62;33.90;100177.32;1704596;83;21076;-72
2022/06/27 10:51:33;;;;;;;3.77;3.02;;;;;;;30.61;33.45;100170.97;1704244;83;21139;-70
2022/06/27 10:54:09;;;;;;;16.00;3.80;;;;;;;30.59;34.02;100179.47;1699074;83;21078;-76
2022/06/27 10:56:52;;;;;;;8.00;3.62;;;;;;;30.67;34.06;100179.78;1698556;84;21065;-78
2022/06/27 10:59:25;;;;;;;5.92;3.85;;;;;;;30.82;33.94;100189.94;1701921;83;21752;-73
2022/06/27 11:01:58;;;;;;;8.03;3.52;;;;;;;30.93;33.76;100172.86;1695691;84;21096;-69
2022/06/27 11:04:35;;;;;;;7.85;4.00;;;;;;;31.05;33.71;100178.20;1685805;84;21804;-71
2022/06/27 11:07:07;;;;;;;6.80;3.20;;;;;;;31.09;33.50;100176.27;1677298;84;21119;-71
2022/06/27 11:09:47;;;;;;;4.40;3.70;;;;;;;31.16;33.41;100172.22;1651837;85;21088;-70
2022/06/27 11:12:20;;;;;;;7.40;3.20;;;;;;;31.22;33.64;100166.33;1673978;84;21360;-70
2022/06/27 11:14:58;;;;;;;6.92;5.05;;;;;;;31.28;33.75;100175.33;1689785;84;21061;-72
2022/06/27 11:17:32;;;;;;;4.42;3.72;;;;;;;31.39;33.56;100156.02;1693370;83;21234;-71
2022/06/27 11:20:25;;;;;;;4.45;3.72;;;;;;;31.49;33.67;100170.64;1694857;84;21001;-75
2022/06/27 11:22:59;;;;;;;9.25;3.30;;;;;;;31.62;33.38;100164.25;1696049;84;21427;-75
2022/06/27 11:25:27;;;;;;;8.38;3.80;;;;;;;31.62;33.43;100158.11;1696239;84;20962;-72
2022/06/27 11:33:36;;;;;;;10.15;4.40;;;;;;;31.69;33.84;100155.42;1668580;85;21051;-72
2022/06/27 11:36:03;;;;;;;9.83;5.53;;;;;;;31.72;34.24;100167.75;1698904;83;21585;-73
2022/06/27 11:38:33;;;;;;;7.50;4.58;;;;;;;31.79;34.32;100163.09;1668093;85;21493;-73
2022/06/27 11:41:08;;;;;;;8.73;4.25;;;;;;;31.76;34.80;100163.02;1666494;85;21028;-73
2022/06/27 11:43:56;;;;;;;6.83;5.65;;;;;;;31.71;34.59;100153.63;1696687;84;21247;-73